Time;durP1;ratioP1;P1;durP2;ratioP2;P2;SDS_P1;SDS_P2;PMS_P1;PMS_P2;Temp;Humidity;BMP_temperature;BMP_pressure;BME280_temperature;BME280_humidity;BME280_pressure;Samples;Min_cycle;Max_cycle;Signal;HPM_P1;HPM_P2
2021/04/30 00:04:14;;;;;;;5.32;4.50;;;9.30;73.50;;;;;;6132613;23;20074;-95
2021/04/30 00:15:02;;;;;;;;;;;;;;;;;;;;;
2021/04/30 00:17:39;;;;;;;6.22;5.30;;;9.20;74.60;;;;;;5950296;24;20021;-95
2021/04/30 00:20:17;;;;;;;6.78;5.47;;;9.10;74.90;;;;;;5961175;24;20017;-96
2021/04/30 00:22:57;;;;;;;7.53;5.75;;;9.10;75.30;;;;;;5970021;23;20023;-95
2021/04/30 00:28:39;;;;;;;;;;;;;;;;;;;;;
2021/04/30 00:31:16;;;;;;;8.02;4.90;;;9.10;75.00;;;;;;6016641;23;20046;-94
2021/04/30 00:33:41;;;;;;;6.40;4.82;;;9.10;75.30;;;;;;5994267;23;20007;-95
2021/04/30 00:36:52;;;;;;;7.15;5.10;;;9.10;75.40;;;;;;5993220;23;20037;-96
2021/04/30 00:39:22;;;;;;;5.97;5.15;;;9.10;75.60;;;;;;6067254;23;20076;-95
2021/04/30 00:52:49;;;;;;;6.22;4.97;;;9.10;76.30;;;;;;6104021;23;20013;-95
2021/04/30 00:55:36;;;;;;;5.13;4.57;;;9.10;76.30;;;;;;6082362;23;20014;-95
2021/04/30 00:58:21;;;;;;;6.60;5.10;;;9.10;76.60;;;;;;6120121;23;20124;-95
2021/04/30 01:08:30;;;;;;;7.03;5.43;;;8.90;77.20;;;;;;6102601;23;20062;-95
2021/04/30 01:18:22;;;;;;;7.68;5.78;;;8.80;77.40;;;;;;6102540;23;20052;-94
2021/04/30 01:20:59;;;;;;;;;;;;;;;;;;;;;
2021/04/30 01:24:10;;;;;;;8.90;5.60;;;8.80;77.60;;;;;;5988239;24;20368;-95
2021/04/30 01:27:25;;;;;;;6.72;5.20;;;8.80;78.00;;;;;;5964923;24;20016;-96
2021/04/30 01:30:24;;;;;;;6.93;5.18;;;8.80;77.60;;;;;;5876950;24;20010;-94
2021/04/30 01:35:52;;;;;;;6.88;5.72;;;8.80;77.60;;;;;;6043946;23;20015;-95
2021/04/30 01:38:34;;;;;;;;;;;;;;;;;;;;;
2021/04/30 01:41:17;;;;;;;11.07;5.75;;;8.70;77.70;;;;;;6133379;23;20040;-94
2021/04/30 01:44:14;;;;;;;7.47;6.22;;;8.70;77.60;;;;;;6132704;23;20010;-95
2021/04/30 01:46:51;;;;;;;7.75;5.82;;;8.70;78.10;;;;;;6077876;23;20280;-95
2021/04/30 01:50:11;;;;;;;8.85;5.60;;;8.70;77.30;;;;;;6131775;23;20006;-96
2021/04/30 01:52:53;;;;;;;6.15;5.55;;;8.70;77.80;;;;;;6133110;23;20129;-96
2021/04/30 01:55:28;;;;;;;9.57;6.70;;;8.60;77.90;;;;;;6133227;23;20013;-95
2021/04/30 01:58:46;;;;;;;9.75;5.80;;;8.60;78.00;;;;;;6132239;23;20006;-95
2021/04/30 02:14:41;;;;;;;7.78;5.80;;;8.50;78.70;;;;;;6104535;23;20008;-94
2021/04/30 02:17:15;;;;;;;7.10;5.63;;;8.50;78.30;;;;;;6078089;23;20034;-95
2021/04/30 02:20:07;;;;;;;;;;;;;;;;;;;;;
2021/04/30 02:26:05;;;;;;;6.25;4.65;;;8.60;78.30;;;;;;6015938;23;20042;-94
2021/04/30 02:28:34;;;;;;;8.95;6.20;;;8.60;78.20;;;;;;5992339;23;20076;-96
2021/04/30 02:31:39;;;;;;;10.40;5.95;;;8.60;78.10;;;;;;6084848;23;20002;-95
2021/04/30 02:37:46;;;;;;;10.20;6.93;;;8.60;78.30;;;;;;6133102;23;20137;-95
2021/04/30 02:40:15;;;;;;;7.95;6.30;;;8.60;78.60;;;;;;6132464;23;20010;-96
2021/04/30 02:42:47;;;;;;;11.48;6.80;;;8.60;78.50;;;;;;6132346;23;20006;-95
2021/04/30 02:45:15;;;;;;;11.20;7.53;;;8.60;78.80;;;;;;6132442;23;20269;-95
2021/04/30 02:47:46;;;;;;;11.68;6.90;;;8.60;78.60;;;;;;6131852;23;20017;-95
2021/04/30 02:50:19;;;;;;;9.52;7.18;;;8.60;78.90;;;;;;6132948;23;20002;-96
2021/04/30 02:53:52;;;;;;;10.57;6.95;;;8.60;78.60;;;;;;6132668;23;20302;-96
2021/04/30 03:00:59;;;;;;;9.13;6.72;;;8.70;78.70;;;;;;6016741;23;20112;-96
2021/04/30 03:13:50;;;;;;;;;;;;;;;;;;;;;
2021/04/30 03:20:17;;;;;;;9.70;7.13;;;8.90;77.90;;;;;;6037967;23;20014;-96
2021/04/30 03:22:46;;;;;;;10.95;8.23;;;8.90;78.40;;;;;;6106353;23;20052;-95
2021/04/30 03:25:30;;;;;;;12.60;7.72;;;8.90;77.80;;;;;;6131890;23;20009;-95
2021/04/30 03:27:56;;;;;;;11.63;8.18;;;9.00;78.20;;;;;;6131698;23;20030;-94
2021/04/30 03:33:45;;;;;;;11.25;8.25;;;8.80;78.80;;;;;;6132389;23;20020;-95
2021/04/30 03:43:21;;;;;;;9.95;7.65;;;9.00;78.50;;;;;;6101131;23;20062;-95
2021/04/30 03:45:59;;;;;;;12.60;9.10;;;9.10;78.40;;;;;;6075773;23;20015;-95
2021/04/30 03:48:25;;;;;;;11.52;8.07;;;9.10;77.80;;;;;;6099845;23;20005;-95
2021/04/30 03:50:51;;;;;;;11.35;8.88;;;9.00;78.50;;;;;;6133683;23;20081;-93
2021/04/30 03:53:24;;;;;;;13.43;8.88;;;9.00;78.70;;;;;;6132378;23;20266;-92
2021/04/30 03:55:51;;;;;;;11.60;9.48;;;9.00;78.60;;;;;;6133562;23;20259;-94
2021/04/30 03:58:20;;;;;;;13.85;9.20;;;8.90;78.90;;;;;;6132104;23;20014;-95
2021/04/30 04:00:45;;;;;;;12.93;9.18;;;8.90;78.70;;;;;;6131292;23;20028;-94
2021/04/30 04:03:11;;;;;;;12.57;9.48;;;9.00;78.80;;;;;;6131870;23;20006;-94
2021/04/30 04:05:37;;;;;;;10.23;8.30;;;9.00;78.30;;;;;;6132078;23;20212;-94
2021/04/30 04:08:04;;;;;;;10.52;8.55;;;9.00;78.30;;;;;;6131406;23;20006;-94
2021/04/30 04:10:55;;;;;;;;;;;;;;;;;;;;;
2021/04/30 04:13:25;;;;;;;10.75;8.85;;;9.00;78.70;;;;;;6131863;23;20271;-96
2021/04/30 04:15:52;;;;;;;12.20;8.77;;;9.00;79.10;;;;;;6131683;23;20045;-95
2021/04/30 04:18:19;;;;;;;13.65;8.50;;;9.10;78.40;;;;;;6131271;23;20212;-95
2021/04/30 04:20:46;;;;;;;15.70;9.38;;;9.10;79.20;;;;;;6131760;23;19998;-95
2021/04/30 04:23:18;;;;;;;15.20;9.32;;;9.20;78.30;;;;;;6131720;23;20245;-95
2021/04/30 04:26:27;;;;;;;12.02;8.93;;;9.20;77.90;;;;;;6131310;23;20045;-94
2021/04/30 04:29:09;;;;;;;13.27;9.05;;;9.30;78.30;;;;;;6116941;23;20017;-95
2021/04/30 04:31:38;;;;;;;10.68;8.32;;;9.30;78.50;;;;;;6131109;23;20026;-94
2021/04/30 04:34:04;;;;;;;13.73;9.52;;;9.40;78.40;;;;;;6133309;23;20021;-94
2021/04/30 04:36:32;;;;;;;11.00;9.35;;;9.40;77.80;;;;;;6130779;23;20258;-93
2021/04/30 04:38:57;;;;;;;10.40;8.55;;;9.50;77.80;;;;;;6129718;23;20048;-93
2021/04/30 04:41:23;;;;;;;14.00;9.30;;;9.60;77.60;;;;;;6155323;23;20006;-93
2021/04/30 04:43:48;;;;;;;10.20;8.50;;;9.60;77.70;;;;;;6130476;23;20005;-93
2021/04/30 04:46:14;;;;;;;11.48;8.45;;;9.60;77.70;;;;;;6130629;23;20002;-92
2021/04/30 04:48:40;;;;;;;14.40;9.20;;;9.70;77.30;;;;;;6130770;23;20002;-93
2021/04/30 04:51:05;;;;;;;10.88;8.75;;;9.70;77.10;;;;;;6130738;23;20002;-93
2021/04/30 04:53:31;;;;;;;11.30;8.93;;;9.70;77.50;;;;;;6133532;23;20006;-93
2021/04/30 04:56:03;;;;;;;13.73;9.45;;;9.80;77.30;;;;;;6131697;23;20064;-93
2021/04/30 04:58:28;;;;;;;13.93;9.40;;;9.70;77.20;;;;;;6131869;23;20010;-94
2021/04/30 05:00:56;;;;;;;12.88;10.18;;;9.70;77.20;;;;;;6132266;23;20204;-93
2021/04/30 05:03:22;;;;;;;10.13;8.68;;;9.70;77.80;;;;;;6132302;23;20006;-91
2021/04/30 05:05:48;;;;;;;12.18;9.27;;;9.80;77.30;;;;;;6132255;23;20002;-93
2021/04/30 05:08:42;;;;;;;11.77;9.02;;;9.80;77.30;;;;;;6132577;23;20077;-93
2021/04/30 05:11:08;;;;;;;11.30;8.45;;;9.90;76.90;;;;;;6132996;23;20034;-93
2021/04/30 05:13:34;;;;;;;12.45;10.23;;;9.90;77.20;;;;;;6132694;23;20012;-92
2021/04/30 05:16:00;;;;;;;12.63;10.18;;;9.90;76.80;;;;;;6132315;23;20014;-93
2021/04/30 05:18:32;;;;;;;13.65;8.80;;;9.90;77.30;;;;;;6133867;23;20002;-93
2021/04/30 05:21:14;;;;;;;13.53;8.93;;;9.90;76.80;;;;;;6132457;23;20400;-92
2021/04/30 05:23:40;;;;;;;11.13;9.48;;;9.90;77.00;;;;;;6131892;23;20013;-93
2021/04/30 05:26:08;;;;;;;11.32;9.40;;;9.80;76.50;;;;;;6132251;23;20109;-93
2021/04/30 05:28:33;;;;;;;16.02;10.10;;;9.80;77.30;;;;;;6132203;23;20008;-91
2021/04/30 05:30:59;;;;;;;12.55;9.68;;;9.80;77.10;;;;;;6131716;23;20006;-93
2021/04/30 05:33:25;;;;;;;10.63;9.02;;;9.80;77.60;;;;;;6131985;23;20006;-94
2021/04/30 05:35:51;;;;;;;11.82;9.45;;;9.80;77.30;;;;;;6132764;23;20017;-91
2021/04/30 05:38:17;;;;;;;11.82;9.73;;;9.80;77.10;;;;;;6132445;23;20010;-94
2021/04/30 05:40:42;;;;;;;11.43;8.85;;;9.80;77.60;;;;;;6107202;23;20006;-93
2021/04/30 05:43:08;;;;;;;14.20;9.38;;;9.90;77.60;;;;;;6131753;23;20353;-93
2021/04/30 05:45:33;;;;;;;13.80;9.38;;;9.90;77.90;;;;;;6132056;23;20002;-94
2021/04/30 05:47:59;;;;;;;15.07;10.30;;;9.90;77.70;;;;;;6131518;23;20061;-94
2021/04/30 05:50:25;;;;;;;11.45;9.52;;;10.10;77.20;;;;;;6131927;23;20247;-94
2021/04/30 05:52:50;;;;;;;13.15;10.05;;;10.10;76.90;;;;;;6106913;23;20002;-94
2021/04/30 05:55:16;;;;;;;14.23;9.77;;;10.20;77.20;;;;;;6132639;23;20006;-93
2021/04/30 05:57:41;;;;;;;13.68;9.85;;;10.20;77.40;;;;;;6131500;23;20097;-94
2021/04/30 06:00:13;;;;;;;13.63;10.25;;;10.30;76.70;;;;;;6131582;23;20052;-93
2021/04/30 06:02:39;;;;;;;15.27;10.77;;;10.30;76.80;;;;;;6133000;23;20020;-93
2021/04/30 06:05:06;;;;;;;13.55;10.63;;;10.30;77.40;;;;;;6131781;23;20009;-93
2021/04/30 06:07:32;;;;;;;14.85;10.32;;;10.30;77.60;;;;;;6131491;23;20392;-94
2021/04/30 06:09:57;;;;;;;12.02;10.07;;;10.30;77.10;;;;;;6132643;23;20002;-94
2021/04/30 06:12:23;;;;;;;12.73;10.45;;;10.30;77.50;;;;;;6131626;23;20006;-94
2021/04/30 06:14:49;;;;;;;16.52;10.73;;;10.30;77.50;;;;;;6131659;23;20338;-94
2021/04/30 06:17:15;;;;;;;19.48;11.48;;;10.30;77.50;;;;;;6132075;23;20009;-93
2021/04/30 06:19:40;;;;;;;15.07;11.30;;;10.40;77.70;;;;;;6131860;23;20350;-93
2021/04/30 06:22:06;;;;;;;15.85;11.60;;;10.50;78.40;;;;;;6131560;23;20013;-94
2021/04/30 06:24:32;;;;;;;14.95;10.98;;;10.50;78.40;;;;;;6131914;23;20013;-93
2021/04/30 06:26:57;;;;;;;20.45;11.93;;;10.50;76.80;;;;;;6131429;23;20013;-93
2021/04/30 06:29:23;;;;;;;14.15;10.93;;;10.50;77.00;;;;;;6131821;23;20009;-93
2021/04/30 06:31:49;;;;;;;15.00;11.25;;;10.50;77.30;;;;;;6131977;23;20009;-94
2021/04/30 06:34:14;;;;;;;14.60;11.70;;;10.50;77.10;;;;;;6131216;23;20010;-91
2021/04/30 06:36:40;;;;;;;16.33;11.43;;;10.60;77.20;;;;;;6131653;23;20029;-93
2021/04/30 06:39:06;;;;;;;14.93;10.32;;;10.60;77.00;;;;;;6131190;23;20258;-93
2021/04/30 06:41:34;;;;;;;16.58;11.00;;;10.60;76.60;;;;;;6131578;23;20017;-94
2021/04/30 06:44:00;;;;;;;14.07;10.15;;;10.60;77.50;;;;;;6130614;23;20077;-94
2021/04/30 06:46:27;;;;;;;21.10;11.43;;;10.60;77.50;;;;;;6133498;23;20276;-93
2021/04/30 06:48:52;;;;;;;18.10;11.25;;;10.60;77.70;;;;;;6132401;23;20006;-94
2021/04/30 06:51:18;;;;;;;15.02;9.88;;;10.50;77.20;;;;;;6136934;23;20065;-94
2021/04/30 06:53:44;;;;;;;12.98;9.90;;;10.60;77.80;;;;;;6131451;23;20020;-92
2021/04/30 06:56:12;;;;;;;15.70;11.55;;;10.60;77.20;;;;;;6131689;23;20030;-93
2021/04/30 06:58:38;;;;;;;17.35;10.77;;;10.50;77.60;;;;;;6131148;23;20009;-94
2021/04/30 07:01:04;;;;;;;15.93;10.88;;;10.50;78.00;;;;;;6130859;23;20590;-92
2021/04/30 07:03:30;;;;;;;17.17;11.57;;;10.50;77.20;;;;;;6131077;23;20021;-92
2021/04/30 07:05:56;;;;;;;16.77;10.73;;;10.60;78.10;;;;;;6131206;23;20006;-93
2021/04/30 07:08:21;;;;;;;18.33;10.57;;;10.60;77.70;;;;;;6155647;23;20247;-90
2021/04/30 07:10:47;;;;;;;14.63;10.43;;;10.50;77.60;;;;;;6155421;23;19998;-93
2021/04/30 07:13:16;;;;;;;20.27;11.52;;;10.40;77.90;;;;;;6130888;23;20373;-93
2021/04/30 07:15:56;;;;;;;14.93;11.25;;;10.40;78.50;;;;;;6131892;23;20012;-91
2021/04/30 07:18:22;;;;;;;13.98;9.68;;;10.40;78.50;;;;;;6130886;23;20296;-92
2021/04/30 07:20:47;;;;;;;15.45;10.32;;;10.40;78.60;;;;;;6130694;23;20006;-92
2021/04/30 07:23:13;;;;;;;13.32;10.13;;;10.30;79.40;;;;;;6131026;23;20330;-93
2021/04/30 07:25:39;;;;;;;16.75;11.13;;;10.40;79.20;;;;;;6130850;23;20347;-93
2021/04/30 07:28:04;;;;;;;12.02;10.23;;;10.40;79.40;;;;;;6131536;23;20010;-93
2021/04/30 07:30:30;;;;;;;16.30;11.40;;;10.40;79.40;;;;;;6130350;23;20174;-92
2021/04/30 07:32:56;;;;;;;14.00;10.05;;;10.40;79.10;;;;;;6132666;23;20002;-92
2021/04/30 07:35:24;;;;;;;15.93;10.13;;;10.40;79.00;;;;;;6129603;23;20024;-93
2021/04/30 07:37:50;;;;;;;13.68;10.02;;;10.40;79.10;;;;;;6133667;23;20009;-93
2021/04/30 07:40:18;;;;;;;16.55;9.95;;;10.40;79.50;;;;;;6130320;23;20085;-94
2021/04/30 07:42:43;;;;;;;15.25;9.57;;;10.60;79.10;;;;;;6130249;23;20005;-93
2021/04/30 07:45:10;;;;;;;19.02;10.60;;;10.60;79.10;;;;;;6130780;23;20006;-93
2021/04/30 07:47:36;;;;;;;13.68;10.30;;;10.60;79.10;;;;;;6130779;23;20097;-92
2021/04/30 07:50:02;;;;;;;14.60;9.35;;;10.60;79.30;;;;;;6130746;23;20279;-94
2021/04/30 07:52:28;;;;;;;11.50;8.60;;;10.60;79.50;;;;;;6129363;23;20028;-92
2021/04/30 07:54:53;;;;;;;14.75;9.98;;;10.80;79.70;;;;;;6130206;23;20002;-93
2021/04/30 07:57:19;;;;;;;15.27;10.45;;;10.90;78.90;;;;;;6131105;23;20091;-94
2021/04/30 07:59:45;;;;;;;14.05;8.60;;;10.90;78.80;;;;;;6130083;23;20160;-95
2021/04/30 08:02:10;;;;;;;14.77;9.68;;;10.90;78.50;;;;;;6130210;23;20009;-93
2021/04/30 08:04:42;;;;;;;12.27;9.15;;;11.00;79.90;;;;;;6130283;23;20034;-94
2021/04/30 08:07:07;;;;;;;11.50;9.45;;;11.20;78.50;;;;;;6130674;23;20081;-93
2021/04/30 08:09:39;;;;;;;12.88;9.48;;;11.30;77.70;;;;;;6130745;23;20013;-94
2021/04/30 08:12:05;;;;;;;12.93;9.30;;;11.50;77.90;;;;;;6129848;23;20577;-93
2021/04/30 08:14:30;;;;;;;13.75;10.00;;;11.60;76.90;;;;;;6130742;23;20010;-93
2021/04/30 08:16:56;;;;;;;14.95;9.98;;;11.70;76.50;;;;;;6131273;23;20073;-92
2021/04/30 08:19:21;;;;;;;18.40;9.60;;;11.80;75.60;;;;;;6130735;23;20629;-92
2021/04/30 08:21:47;;;;;;;15.70;9.50;;;11.80;75.20;;;;;;6130117;23;20018;-93
2021/04/30 08:24:12;;;;;;;14.80;9.95;;;11.90;76.50;;;;;;6130624;23;20006;-93
2021/04/30 08:26:38;;;;;;;12.98;10.02;;;12.10;75.80;;;;;;6130884;23;20005;-93
2021/04/30 08:29:04;;;;;;;12.63;8.63;;;12.30;74.90;;;;;;6130133;23;20080;-94
2021/04/30 08:32:11;;;;;;;12.55;8.65;;;12.50;74.30;;;;;;6131945;23;20017;-95
2021/04/30 08:34:36;;;;;;;12.10;9.15;;;12.70;73.50;;;;;;6132333;23;20069;-91
2021/04/30 08:37:02;;;;;;;11.07;8.60;;;13.00;72.70;;;;;;6132582;23;20014;-94
2021/04/30 08:39:30;;;;;;;13.52;9.23;;;13.10;72.90;;;;;;6132595;23;20073;-94
2021/04/30 08:41:56;;;;;;;12.88;9.23;;;13.20;73.00;;;;;;6132433;23;20353;-94
2021/04/30 08:44:30;;;;;;;12.50;8.40;;;13.30;71.80;;;;;;6132484;23;20604;-94
2021/04/30 08:46:56;;;;;;;13.40;10.07;;;13.40;72.50;;;;;;6133434;23;20012;-93
2021/04/30 08:49:38;;;;;;;11.80;9.85;;;13.40;72.20;;;;;;6135219;23;20005;-95
2021/04/30 08:52:04;;;;;;;13.63;8.83;;;13.50;72.60;;;;;;6132500;23;20033;-93
2021/04/30 08:55:06;;;;;;;10.77;7.53;;;13.60;72.50;;;;;;6131981;23;20345;-95
2021/04/30 08:57:33;;;;;;;11.57;8.57;;;13.70;71.20;;;;;;6133139;23;20006;-91
2021/04/30 09:00:09;;;;;;;11.20;8.05;;;13.70;71.50;;;;;;6133455;23;20326;-94
2021/04/30 09:02:41;;;;;;;10.75;7.97;;;13.80;71.30;;;;;;6107671;23;20032;-94
2021/04/30 09:05:09;;;;;;;11.27;7.88;;;13.80;71.60;;;;;;6106955;23;20013;-94
2021/04/30 09:07:45;;;;;;;11.30;7.93;;;13.90;71.20;;;;;;6131753;23;20010;-94
2021/04/30 09:11:07;;;;;;;12.07;8.02;;;13.80;70.90;;;;;;6132058;23;20033;-94
2021/04/30 09:14:14;;;;;;;8.57;6.20;;;13.80;71.80;;;;;;6131963;23;20014;-94
2021/04/30 09:20:07;;;;;;;12.93;7.45;;;13.70;70.40;;;;;;6132772;23;20033;-94
2021/04/30 09:22:40;;;;;;;12.40;8.05;;;13.50;71.90;;;;;;6132044;23;20006;-94
2021/04/30 09:25:16;;;;;;;10.75;7.60;;;13.40;72.90;;;;;;6131820;23;20006;-94
2021/04/30 09:27:50;;;;;;;9.05;6.93;;;13.40;73.30;;;;;;6132260;23;20343;-93
2021/04/30 09:30:21;;;;;;;10.63;7.90;;;13.30;73.50;;;;;;6131712;23;20013;-94
2021/04/30 09:33:03;;;;;;;7.82;6.47;;;13.20;73.70;;;;;;6107534;23;20002;-94
2021/04/30 09:35:29;;;;;;;8.00;6.13;;;13.10;73.70;;;;;;6107756;23;20010;-93
2021/04/30 09:38:40;;;;;;;8.75;6.72;;;13.00;74.80;;;;;;6130361;23;20089;-94
2021/04/30 09:41:44;;;;;;;8.30;6.03;;;12.90;74.70;;;;;;6131161;23;20010;-95
2021/04/30 09:44:09;;;;;;;8.20;6.13;;;12.60;75.90;;;;;;6107823;23;20002;-93
2021/04/30 09:46:38;;;;;;;10.98;7.63;;;12.50;76.60;;;;;;6132032;23;20212;-94
2021/04/30 09:49:18;;;;;;;11.27;7.85;;;12.30;79.50;;;;;;6132279;23;20002;-94
2021/04/30 09:51:59;;;;;;;12.50;7.65;;;12.20;81.10;;;;;;6132052;23;20002;-94
2021/04/30 09:54:26;;;;;;;10.82;8.23;;;12.00;82.00;;;;;;6132003;23;20029;-93
2021/04/30 09:57:17;;;;;;;12.10;8.07;;;11.90;83.40;;;;;;6131777;23;20084;-94
2021/04/30 10:00:14;;;;;;;10.50;7.90;;;11.90;83.60;;;;;;6106646;23;20012;-94
2021/04/30 10:06:17;;;;;;;8.75;7.18;;;11.80;83.90;;;;;;6132098;23;20061;-93
2021/04/30 10:12:21;;;;;;;7.18;5.63;;;11.70;84.20;;;;;;6131870;23;20044;-94
2021/04/30 10:15:41;;;;;;;7.38;6.30;;;11.60;84.30;;;;;;6131157;23;20020;-94
2021/04/30 10:18:52;;;;;;;8.85;6.97;;;11.60;84.50;;;;;;6131270;23;20006;-95
2021/04/30 10:32:11;;;;;;;9.43;6.93;;;11.50;85.70;;;;;;6014729;23;20024;-93
2021/04/30 10:35:05;;;;;;;8.57;6.20;;;11.60;86.00;;;;;;6021356;23;20076;-93
2021/04/30 10:41:10;;;;;;;7.78;5.78;;;11.80;85.30;;;;;;5988308;24;20015;-93
2021/04/30 10:45:01;;;;;;;5.90;4.20;;;11.80;84.40;;;;;;5987432;24;20036;-95
2021/04/30 10:48:25;;;;;;;5.00;3.55;;;11.70;84.40;;;;;;5851393;24;20147;-94
2021/04/30 10:51:24;;;;;;;4.32;3.42;;;11.70;82.40;;;;;;5844625;24;20018;-95
2021/04/30 10:57:32;;;;;;;4.97;3.50;;;11.80;82.90;;;;;;5823063;24;20010;-93
2021/04/30 11:07:15;;;;;;;5.22;3.78;;;12.00;81.40;;;;;;5876703;24;20070;-95
2021/04/30 11:10:20;;;;;;;5.30;3.28;;;12.10;81.40;;;;;;5946263;23;20008;-95
2021/04/30 11:13:20;;;;;;;6.18;3.92;;;12.20;80.80;;;;;;6014330;23;20004;-92
2021/04/30 11:15:56;;;;;;;6.43;4.00;;;12.30;80.70;;;;;;6011216;23;20280;-93
2021/04/30 11:21:57;;;;;;;5.43;3.20;;;12.60;79.50;;;;;;6131708;23;20020;-95
2021/04/30 11:25:16;;;;;;;;;;;;;;;;;;;;;
2021/04/30 11:28:07;;;;;;;3.30;3.00;;;12.70;78.70;;;;;;6132002;23;20037;-93
2021/04/30 11:30:51;;;;;;;;;;;;;;;;;;;;;
2021/04/30 11:33:41;;;;;;;5.07;3.80;;;12.70;78.20;;;;;;6131966;23;20028;-94
2021/04/30 11:42:33;;;;;;;4.20;3.80;;;12.80;78.10;;;;;;6071758;23;20059;-92
2021/04/30 12:03:09;;;;;;;5.65;3.80;;;13.10;77.70;;;;;;5985465;24;20008;-93
2021/04/30 12:06:04;;;;;;;4.80;3.33;;;13.20;78.70;;;;;;5984904;24;20234;-92
2021/04/30 12:11:45;;;;;;;4.95;3.45;;;13.20;77.00;;;;;;6071817;23;20011;-94
2021/04/30 12:14:17;;;;;;;4.40;3.40;;;13.30;76.70;;;;;;6047741;23;20010;-93
2021/04/30 12:17:06;;;;;;;5.22;4.03;;;13.40;76.20;;;;;;6093115;23;20091;-94
2021/04/30 12:19:37;;;;;;;5.38;3.63;;;13.40;76.40;;;;;;6135518;23;20017;-92
2021/04/30 12:26:05;;;;;;;4.47;3.00;;;13.50;74.90;;;;;;6068247;23;20097;-92
2021/04/30 12:28:35;;;;;;;4.40;3.50;;;13.50;75.20;;;;;;6077500;23;20235;-93
2021/04/30 12:31:09;;;;;;;5.90;4.18;;;13.50;75.60;;;;;;6125034;23;20047;-93
2021/04/30 12:33:36;;;;;;;3.88;3.47;;;13.60;74.60;;;;;;6132560;23;20006;-94
2021/04/30 12:36:21;;;;;;;5.43;4.20;;;13.50;74.70;;;;;;6131951;23;20077;-93
2021/04/30 12:43:06;;;;;;;;;;;;;;;;;;;;;
2021/04/30 12:48:40;;;;;;;;;;;;;;;;;;;;;
2021/04/30 12:51:31;;;;;;;3.58;2.65;;;13.50;73.70;;;;;;6132921;23;20025;-94
2021/04/30 12:54:13;;;;;;;3.92;3.35;;;13.50;74.30;;;;;;6132614;23;20242;-93
2021/04/30 12:57:20;;;;;;;3.58;2.92;;;13.50;74.60;;;;;;6131431;23;20088;-94
2021/04/30 13:00:05;;;;;;;4.25;3.28;;;13.50;72.60;;;;;;6132505;23;20010;-94
2021/04/30 13:09:22;;;;;;;5.03;2.63;;;13.40;73.90;;;;;;6073084;23;20014;-94
2021/04/30 13:12:11;;;;;;;3.58;2.88;;;13.40;74.30;;;;;;6050032;23;20007;-94
2021/04/30 13:15:08;;;;;;;3.58;3.20;;;13.40;73.60;;;;;;6129490;23;20010;-94
2021/04/30 13:18:03;;;;;;;4.22;3.10;;;13.50;73.40;;;;;;6132864;23;20017;-95
2021/04/30 13:31:24;;;;;;;5.07;4.07;;;13.50;75.80;;;;;;6003000;23;20213;-92
2021/04/30 13:38:00;;;;;;;4.53;3.88;;;13.60;74.70;;;;;;6106478;23;20102;-93
2021/04/30 13:41:16;;;;;;;5.22;4.60;;;13.60;75.20;;;;;;6132565;23;20017;-94
2021/04/30 13:43:42;;;;;;;4.78;3.90;;;13.70;75.20;;;;;;6132489;23;20006;-93
2021/04/30 13:46:24;;;;;;;;;;;;;;;;;;;;;
2021/04/30 13:52:17;;;;;;;5.20;3.92;;;14.10;73.30;;;;;;6105720;23;20089;-94
2021/04/30 13:55:44;;;;;;;;;;;;;;;;;;;;;
2021/04/30 13:58:31;;;;;;;;;;;;;;;;;;;;;
2021/04/30 14:01:05;;;;;;;5.22;4.70;;;14.50;72.40;;;;;;6135610;23;20361;-90
2021/04/30 14:04:11;;;;;;;5.72;4.75;;;14.70;71.50;;;;;;6132717;23;20013;-93
2021/04/30 14:06:50;;;;;;;5.95;4.53;;;14.70;72.40;;;;;;6130666;23;20009;-95
2021/04/30 14:09:32;;;;;;;4.35;3.70;;;14.60;72.50;;;;;;6132230;23;20230;-95
2021/04/30 14:15:10;;;;;;;5.00;4.50;;;14.70;71.60;;;;;;6134348;23;20365;-94
2021/04/30 14:17:47;;;;;;;6.57;4.90;;;14.70;69.90;;;;;;6132515;23;20013;-93
2021/04/30 14:20:18;;;;;;;4.38;3.67;;;14.70;69.90;;;;;;6132155;23;20005;-94
2021/04/30 14:23:04;;;;;;;5.25;4.60;;;14.70;70.00;;;;;;6132448;23;20208;-95
2021/04/30 14:32:38;;;;;;;5.78;4.97;;;14.10;72.40;;;;;;6133091;23;20470;-94
2021/04/30 14:35:03;;;;;;;5.57;4.95;;;14.10;72.20;;;;;;6131952;23;20104;-94
2021/04/30 14:37:29;;;;;;;5.55;4.25;;;14.10;72.30;;;;;;6132246;23;20022;-94
2021/04/30 14:39:55;;;;;;;5.82;4.20;;;14.00;71.90;;;;;;6132265;23;20006;-93
2021/04/30 14:42:20;;;;;;;9.50;5.18;;;13.90;72.70;;;;;;6132008;23;20016;-93
2021/04/30 14:44:49;;;;;;;5.75;4.45;;;13.90;72.90;;;;;;6131944;23;20069;-95
2021/04/30 14:50:55;;;;;;;6.72;4.85;;;13.80;72.80;;;;;;6087557;23;20010;-94
2021/04/30 14:53:25;;;;;;;6.15;4.90;;;13.80;72.90;;;;;;6121842;23;20006;-92
2021/04/30 14:56:03;;;;;;;7.07;5.05;;;13.70;73.20;;;;;;6132112;23;20243;-92
2021/04/30 14:58:39;;;;;;;6.40;4.55;;;13.80;72.90;;;;;;6132828;23;20016;-92
2021/04/30 15:01:05;;;;;;;5.18;4.68;;;13.80;72.70;;;;;;6131735;23;20001;-92
2021/04/30 15:03:30;;;;;;;5.28;4.60;;;13.80;72.40;;;;;;6131456;23;20350;-94
2021/04/30 15:09:08;;;;;;;5.35;4.57;;;13.80;73.20;;;;;;6121287;23;20108;-95
2021/04/30 15:11:35;;;;;;;7.35;5.05;;;13.80;72.10;;;;;;6132095;23;20357;-94
2021/04/30 15:14:01;;;;;;;5.43;4.78;;;13.80;74.10;;;;;;6131295;23;20018;-92
2021/04/30 15:16:27;;;;;;;5.28;4.38;;;13.90;71.70;;;;;;6131200;23;20413;-92
2021/04/30 15:18:54;;;;;;;5.80;4.30;;;13.90;72.70;;;;;;6131170;23;20005;-93
2021/04/30 15:21:20;;;;;;;5.38;4.28;;;13.90;71.60;;;;;;6131483;23;20079;-92
2021/04/30 15:23:46;;;;;;;5.45;4.63;;;13.90;71.30;;;;;;6131769;23;20097;-92
2021/04/30 15:26:11;;;;;;;6.93;5.40;;;14.00;72.30;;;;;;6131297;23;20254;-91
2021/04/30 15:28:37;;;;;;;6.55;5.28;;;13.90;72.40;;;;;;6131292;23;20001;-91
2021/04/30 15:31:03;;;;;;;6.00;4.97;;;13.80;72.20;;;;;;6131353;23;20002;-92
2021/04/30 15:33:29;;;;;;;6.90;5.03;;;13.80;73.00;;;;;;6131511;23;20002;-92
2021/04/30 15:36:29;;;;;;;6.93;5.45;;;13.80;73.40;;;;;;6131320;23;20002;-95
2021/04/30 15:38:58;;;;;;;8.38;6.53;;;13.80;75.20;;;;;;6132450;23;20002;-95
2021/04/30 15:41:43;;;;;;;11.45;7.35;;;13.80;74.20;;;;;;6109886;23;20008;-92
2021/04/30 15:44:09;;;;;;;24.02;11.90;;;13.90;73.70;;;;;;6134916;23;20417;-93
2021/04/30 15:46:34;;;;;;;15.88;9.52;;;14.00;72.30;;;;;;6131649;23;20014;-92
2021/04/30 15:49:06;;;;;;;16.48;9.43;;;14.10;73.30;;;;;;6131007;23;20006;-95
2021/04/30 15:51:33;;;;;;;12.98;7.55;;;14.20;73.00;;;;;;6131604;23;20002;-95
2021/04/30 15:53:59;;;;;;;13.35;7.70;;;14.30;72.50;;;;;;6130974;23;20009;-94
2021/04/30 15:56:25;;;;;;;7.13;5.70;;;14.40;71.90;;;;;;6131238;23;20006;-92
2021/04/30 15:58:50;;;;;;;9.20;6.65;;;14.50;71.70;;;;;;6130820;23;20010;-93
2021/04/30 16:01:16;;;;;;;8.70;7.22;;;14.40;70.80;;;;;;6131005;23;20006;-91
2021/04/30 16:03:41;;;;;;;7.53;6.18;;;14.30;71.40;;;;;;6131270;23;20006;-93
2021/04/30 16:06:08;;;;;;;7.35;5.68;;;14.10;72.10;;;;;;6131466;23;20006;-94
2021/04/30 16:08:33;;;;;;;10.00;6.18;;;13.90;73.60;;;;;;6131373;23;20204;-91
2021/04/30 16:10:59;;;;;;;8.43;6.68;;;13.80;73.90;;;;;;6131077;23;20016;-93
2021/04/30 16:13:25;;;;;;;10.30;6.45;;;13.70;73.70;;;;;;6131246;23;20012;-93
2021/04/30 16:15:51;;;;;;;8.48;6.18;;;13.70;74.70;;;;;;6131340;23;20050;-94
2021/04/30 16:18:24;;;;;;;8.63;7.00;;;13.70;74.40;;;;;;6131161;23;20048;-93
2021/04/30 16:20:50;;;;;;;8.27;6.15;;;13.60;74.50;;;;;;6132286;23;20330;-93
2021/04/30 16:23:16;;;;;;;9.75;6.15;;;13.50;75.20;;;;;;6130918;23;20006;-93
2021/04/30 16:25:42;;;;;;;8.07;6.15;;;13.40;76.20;;;;;;6106956;23;20250;-93
2021/04/30 16:28:08;;;;;;;7.75;5.75;;;13.40;76.00;;;;;;6135592;23;20418;-92
2021/04/30 16:30:34;;;;;;;8.30;6.57;;;13.40;76.20;;;;;;6131486;23;20006;-92
2021/04/30 16:33:00;;;;;;;8.07;6.13;;;13.40;76.80;;;;;;6156085;23;20017;-92
2021/04/30 16:35:26;;;;;;;25.35;11.68;;;13.30;77.30;;;;;;6132034;23;20010;-92
2021/04/30 16:37:51;;;;;;;17.75;10.93;;;13.30;76.90;;;;;;6131781;23;20287;-94
2021/04/30 16:40:17;;;;;;;10.85;6.57;;;13.20;76.90;;;;;;6130994;23;20005;-93
2021/04/30 16:42:42;;;;;;;7.93;5.97;;;13.20;77.20;;;;;;6131460;23;20084;-93
2021/04/30 16:45:08;;;;;;;7.05;5.75;;;13.30;77.90;;;;;;6130893;23;20005;-93
2021/04/30 16:47:36;;;;;;;8.30;5.80;;;13.20;77.40;;;;;;6130924;23;20258;-93
2021/04/30 16:50:03;;;;;;;9.82;6.32;;;13.20;77.40;;;;;;6131006;23;20406;-94
2021/04/30 16:52:28;;;;;;;11.18;5.90;;;13.20;76.80;;;;;;6132238;23;20243;-93
2021/04/30 16:54:53;;;;;;;6.05;5.20;;;13.20;77.40;;;;;;6132987;23;20005;-92
2021/04/30 16:57:19;;;;;;;6.93;5.47;;;13.20;77.20;;;;;;6132788;23;20037;-93
2021/04/30 16:59:46;;;;;;;7.32;5.50;;;13.10;77.30;;;;;;6133571;23;20033;-91
2021/04/30 17:02:12;;;;;;;11.75;7.90;;;13.20;76.70;;;;;;6157359;23;20026;-93
2021/04/30 17:04:38;;;;;;;8.38;6.72;;;13.20;76.90;;;;;;6133537;23;20039;-93
2021/04/30 17:07:05;;;;;;;7.03;5.95;;;13.10;76.80;;;;;;6132846;23;20294;-92